createdAt,value
2022-11-27T00:00:33.813Z,4.47
2022-11-27T00:06:26.375Z,4.30
2022-11-27T00:11:57.318Z,4.37
2022-11-27T00:17:28.540Z,4.20
2022-11-27T00:22:59.767Z,4.65
2022-11-27T00:28:32.117Z,4.38
2022-11-27T00:34:05.890Z,4.22
2022-11-27T00:39:36.985Z,3.80
2022-11-27T00:45:08.961Z,3.92
2022-11-27T00:50:40.384Z,4.00
2022-11-27T00:56:17.349Z,3.95
2022-11-27T01:01:49.332Z,3.90
2022-11-27T01:07:20.581Z,3.67
2022-11-27T01:12:51.935Z,3.80
2022-11-27T01:18:22.810Z,3.47
2022-11-27T01:23:54.596Z,3.80
2022-11-27T01:29:25.485Z,4.10
2022-11-27T01:34:56.819Z,4.40
2022-11-27T01:40:28.162Z,3.90
2022-11-27T01:45:59.335Z,3.78
2022-11-27T01:51:31.515Z,3.85
2022-11-27T01:57:07.005Z,3.88
2022-11-27T02:02:38.067Z,4.30
2022-11-27T02:08:11.230Z,3.67
2022-11-27T02:13:58.755Z,3.87
2022-11-27T02:20:12.139Z,3.28
2022-11-27T02:26:07.528Z,2.97
2022-11-27T02:32:00.231Z,3.30
2022-11-27T02:37:58.021Z,3.15
2022-11-27T02:43:40.508Z,3.20
2022-11-27T02:49:13.563Z,3.45
2022-11-27T02:54:44.986Z,3.25
2022-11-27T03:00:17.247Z,2.95
2022-11-27T03:05:50.911Z,3.70
2022-11-27T03:11:22.556Z,3.53
2022-11-27T03:17:18.531Z,3.45
2022-11-27T03:22:49.522Z,2.78
2022-11-27T03:28:21.520Z,3.22
2022-11-27T03:33:54.667Z,3.28
2022-11-27T03:39:26.717Z,3.37
2022-11-27T03:51:00.238Z,3.42
2022-11-27T03:56:40.395Z,3.05
2022-11-27T04:02:15.566Z,3.00
2022-11-27T04:07:47.501Z,2.60
2022-11-27T04:13:18.390Z,3.10
2022-11-27T04:18:49.626Z,2.90
2022-11-27T04:24:20.709Z,3.47
2022-11-27T04:29:52.082Z,3.25
2022-11-27T04:35:23.055Z,2.90
2022-11-27T04:40:54.935Z,3.15
2022-11-27T04:46:25.847Z,3.13
2022-11-27T04:51:57.031Z,3.40
2022-11-27T04:57:28.588Z,3.25
2022-11-27T05:03:00.110Z,2.60
2022-11-27T05:08:33.109Z,3.30
2022-11-27T05:14:20.974Z,3.57
2022-11-27T05:19:51.948Z,2.95
2022-11-27T05:25:23.234Z,2.90
2022-11-27T05:30:54.931Z,3.75
2022-11-27T05:36:26.399Z,3.25
2022-11-27T05:41:57.299Z,3.13
2022-11-27T05:47:28.377Z,3.35
2022-11-27T05:52:59.770Z,3.40
2022-11-27T05:58:31.443Z,3.38
2022-11-27T06:04:02.570Z,3.72
2022-11-27T06:09:33.736Z,3.53
2022-11-27T06:15:05.118Z,3.25
2022-11-27T06:20:40.835Z,3.47
2022-11-27T06:26:26.706Z,2.97
2022-11-27T06:31:58.285Z,3.77
2022-11-27T06:37:29.562Z,3.28
2022-11-27T06:43:00.895Z,3.38
2022-11-27T06:48:32.866Z,3.28
2022-11-27T06:54:04.164Z,3.38
2022-11-27T06:59:35.087Z,3.70
2022-11-27T07:05:06.432Z,3.35
2022-11-27T07:10:37.546Z,3.58
2022-11-27T07:16:10.730Z,3.40
2022-11-27T07:21:42.138Z,3.73
2022-11-27T07:27:13.579Z,3.50
2022-11-27T07:32:45.003Z,3.75
2022-11-27T07:38:16.111Z,3.22
2022-11-27T07:43:47.743Z,3.47
2022-11-27T07:49:19.121Z,3.55
2022-11-27T07:54:50.307Z,3.40
2022-11-27T08:00:21.847Z,3.80
2022-11-27T08:05:53.140Z,3.15
2022-11-27T08:11:35.657Z,4.03
2022-11-27T08:17:07.038Z,3.30
2022-11-27T08:22:37.921Z,3.60
2022-11-27T08:28:09.183Z,3.83
2022-11-27T08:33:41.160Z,3.65
2022-11-27T08:39:12.480Z,3.25
2022-11-27T08:44:43.552Z,3.65
2022-11-27T08:50:14.812Z,3.47
2022-11-27T08:55:46.568Z,4.45
2022-11-27T09:01:23.755Z,3.72
2022-11-27T09:06:58.362Z,3.38
2022-11-27T09:12:29.785Z,3.70
2022-11-27T09:18:00.654Z,4.28
2022-11-27T09:23:33.301Z,3.88
2022-11-27T09:29:04.572Z,4.03
2022-11-27T09:34:37.689Z,4.40
2022-11-27T09:40:14.411Z,3.83
2022-11-27T09:45:49.999Z,4.20
2022-11-27T09:52:06.239Z,4.53
2022-11-27T10:03:15.012Z,4.20
2022-11-27T10:09:14.436Z,4.22
2022-11-27T10:15:00.601Z,4.93
2022-11-27T10:20:39.956Z,4.45
2022-11-27T10:26:28.419Z,4.55
2022-11-27T10:32:54.751Z,4.95
2022-11-27T10:38:24.541Z,5.18
2022-11-27T10:43:58.158Z,4.40
2022-11-27T10:49:29.467Z,4.55
2022-11-27T10:55:03.986Z,4.38
2022-11-27T11:00:35.062Z,5.03
2022-11-27T11:06:21.348Z,4.85
2022-11-27T11:11:53.776Z,4.90
2022-11-27T11:17:34.909Z,5.30
2022-11-27T11:23:06.761Z,5.47
2022-11-27T11:28:47.625Z,4.95
2022-11-27T11:34:24.712Z,6.03
2022-11-27T11:40:02.538Z,5.57
2022-11-27T11:45:35.072Z,6.10
2022-11-27T11:51:17.237Z,6.55
2022-11-27T11:56:52.675Z,6.00
2022-11-27T12:02:59.260Z,6.57
2022-11-27T12:08:56.372Z,6.65
2022-11-27T12:14:40.242Z,6.75
2022-11-27T12:20:15.992Z,6.10
2022-11-27T12:26:07.384Z,5.85
2022-11-27T12:31:48.284Z,6.20
2022-11-27T12:37:19.603Z,5.95
2022-11-27T12:43:07.545Z,6.13
2022-11-27T12:48:45.942Z,6.22
2022-11-27T12:54:30.129Z,6.65
2022-11-27T13:00:06.061Z,6.30
2022-11-27T13:06:12.541Z,5.68
2022-11-27T13:11:43.692Z,6.35
2022-11-27T13:17:17.270Z,6.22
2022-11-27T13:22:48.903Z,5.90
2022-11-27T13:28:43.888Z,6.03
2022-11-27T13:34:21.212Z,6.30
2022-11-27T13:40:04.202Z,5.53
2022-11-27T13:45:37.199Z,6.32
2022-11-27T13:51:10.302Z,6.43
2022-11-27T13:56:41.414Z,6.20
2022-11-27T14:02:12.491Z,5.70
2022-11-27T14:07:46.969Z,5.53
2022-11-27T14:13:22.373Z,5.63
2022-11-27T14:18:59.058Z,4.97
2022-11-27T14:24:33.009Z,5.70
2022-11-27T14:30:25.826Z,5.60
2022-11-27T14:36:05.080Z,5.78
2022-11-27T14:41:36.212Z,5.55
2022-11-27T14:47:08.480Z,5.45
2022-11-27T14:52:40.727Z,5.68
2022-11-27T14:58:18.803Z,5.85
2022-11-27T15:04:05.726Z,6.15
2022-11-27T15:09:37.091Z,5.90
2022-11-27T15:15:21.107Z,5.60
2022-11-27T15:26:39.980Z,4.65
2022-11-27T15:32:23.795Z,6.43
2022-11-27T15:37:57.576Z,5.75
2022-11-27T15:43:28.671Z,5.22
2022-11-27T15:49:00.119Z,6.55
2022-11-27T15:54:31.182Z,5.22
2022-11-27T16:00:02.240Z,5.95
2022-11-27T16:05:43.026Z,5.13
2022-11-27T16:11:14.990Z,5.57
2022-11-27T16:16:46.301Z,5.60
2022-11-27T16:22:17.592Z,5.28
2022-11-27T16:27:48.864Z,6.10
2022-11-27T16:33:21.463Z,5.20
2022-11-27T16:38:54.578Z,5.43
2022-11-27T16:44:28.496Z,5.93
2022-11-27T16:49:59.597Z,5.13
2022-11-27T16:55:32.140Z,5.30
2022-11-27T17:01:11.039Z,5.60
2022-11-27T17:06:42.702Z,4.93
2022-11-27T17:12:13.930Z,5.30
2022-11-27T17:17:45.487Z,5.47
2022-11-27T17:23:16.618Z,5.63
2022-11-27T17:28:48.246Z,5.10
2022-11-27T17:34:20.733Z,5.30
2022-11-27T17:39:53.160Z,5.57
2022-11-27T17:45:24.026Z,5.38
2022-11-27T17:50:55.367Z,5.20
2022-11-27T17:56:27.779Z,5.22
2022-11-27T18:01:59.846Z,5.22
2022-11-27T18:07:31.339Z,5.05
2022-11-27T18:13:03.549Z,4.60
2022-11-27T18:18:35.943Z,5.60
2022-11-27T18:24:23.145Z,5.18
2022-11-27T18:29:54.935Z,4.65
2022-11-27T18:35:25.971Z,5.60
2022-11-27T18:41:08.345Z,5.25
2022-11-27T18:46:39.939Z,5.60
2022-11-27T18:52:11.932Z,4.80
2022-11-27T18:57:43.188Z,4.85
2022-11-27T19:03:15.746Z,5.45
2022-11-27T19:08:47.833Z,5.47
2022-11-27T19:14:19.507Z,6.18
2022-11-27T19:19:54.161Z,5.57
2022-11-27T19:25:26.340Z,5.60
2022-11-27T19:30:57.631Z,5.75
2022-11-27T19:36:30.393Z,5.80
2022-11-27T19:42:01.911Z,6.70
2022-11-27T19:47:33.690Z,6.00
2022-11-27T19:53:07.243Z,6.82
2022-11-27T19:58:38.757Z,6.80
2022-11-27T20:04:11.421Z,7.18
2022-11-27T20:09:42.761Z,7.18
2022-11-27T20:15:17.386Z,7.63
2022-11-27T20:20:48.167Z,7.68
2022-11-27T20:26:22.303Z,7.38
2022-11-27T20:31:53.651Z,7.13
2022-11-27T20:37:25.704Z,7.10
2022-11-27T20:42:59.764Z,6.87
2022-11-27T20:48:31.981Z,6.57
2022-11-27T20:54:03.531Z,6.75
2022-11-27T20:59:34.893Z,6.75
2022-11-27T21:05:06.870Z,6.53
2022-11-27T21:10:38.499Z,6.47
2022-11-27T21:16:13.632Z,6.13
2022-11-27T21:21:45.446Z,6.35
2022-11-27T21:27:16.846Z,5.85
2022-11-27T21:32:48.215Z,6.97
2022-11-27T21:38:19.283Z,6.32
2022-11-27T21:43:55.699Z,5.82
2022-11-27T21:49:26.899Z,6.00
2022-11-27T21:54:58.725Z,5.53
2022-11-27T22:00:29.671Z,5.72
2022-11-27T22:06:03.359Z,5.70
2022-11-27T22:11:34.815Z,5.82
2022-11-27T22:17:06.627Z,5.32
2022-11-27T22:22:38.057Z,6.35
2022-11-27T22:28:10.261Z,5.65
2022-11-27T22:33:43.156Z,5.18
2022-11-27T22:39:14.498Z,5.43
2022-11-27T22:44:45.751Z,5.40
2022-11-27T22:50:17.407Z,6.03
2022-11-27T22:55:48.450Z,5.57
2022-11-27T23:01:25.316Z,5.25
2022-11-27T23:06:56.987Z,5.07
2022-11-27T23:12:28.749Z,5.03
2022-11-27T23:17:59.854Z,5.18
2022-11-27T23:23:31.327Z,5.15
2022-11-27T23:29:03.555Z,5.40
2022-11-27T23:34:34.744Z,5.00
2022-11-27T23:40:07.125Z,5.97
2022-11-27T23:45:38.401Z,5.30
2022-11-27T23:51:15.905Z,5.25
2022-11-27T23:56:51.711Z,5.50
